Time;durP1;ratioP1;P1;durP2;ratioP2;P2;SDS_P1;SDS_P2;PMS_P1;PMS_P2;Temp;Humidity;BMP_temperature;BMP_pressure;BME280_temperature;BME280_humidity;BME280_pressure;Samples;Min_cycle;Max_cycle;Signal;HPM_P1;HPM_P2
2022/06/08 00:01:54;;;;;;;3.72;1.90;;;16.40;99.90;;;;;;5051233;28;20482;-71
2022/06/08 00:04:23;;;;;;;4.38;2.22;;;16.40;99.90;;;;;;5035768;28;20036;-71
2022/06/08 00:06:51;;;;;;;4.10;2.55;;;16.30;99.90;;;;;;5045213;28;20355;-71
2022/06/08 00:09:19;;;;;;;3.95;2.67;;;16.20;99.90;;;;;;5051693;28;20359;-72
2022/06/08 00:11:45;;;;;;;4.68;2.08;;;16.20;99.90;;;;;;5048390;28;20076;-71
2022/06/08 00:14:12;;;;;;;3.25;2.33;;;16.10;99.90;;;;;;5035537;28;20049;-72
2022/06/08 00:16:39;;;;;;;5.40;2.47;;;16.00;99.90;;;;;;5045440;28;20363;-71
2022/06/08 00:19:06;;;;;;;3.35;2.35;;;15.90;99.90;;;;;;5036035;28;20037;-73
2022/06/08 00:21:33;;;;;;;6.07;2.78;;;15.80;99.90;;;;;;5043336;28;20037;-71
2022/06/08 00:23:59;;;;;;;6.97;3.22;;;15.70;99.90;;;;;;5047165;28;20041;-71
2022/06/08 00:26:26;;;;;;;4.05;2.58;;;15.70;99.90;;;;;;5040086;28;20033;-71
2022/06/08 00:28:53;;;;;;;4.60;2.63;;;15.60;99.90;;;;;;5034344;28;20037;-75
2022/06/08 00:31:20;;;;;;;4.45;2.58;;;15.40;99.90;;;;;;5035466;28;20034;-71
2022/06/08 00:33:48;;;;;;;5.38;2.83;;;15.30;99.90;;;;;;5034187;28;20045;-71
2022/06/08 00:36:14;;;;;;;3.42;2.25;;;15.20;99.90;;;;;;5034734;28;20037;-72
2022/06/08 00:38:41;;;;;;;5.10;2.90;;;15.20;99.90;;;;;;5035467;28;20037;-72
2022/06/08 00:41:13;;;;;;;4.00;2.30;;;15.10;99.90;;;;;;5047214;28;20360;-71
2022/06/08 00:43:39;;;;;;;6.15;2.50;;;15.00;99.90;;;;;;5037851;28;20037;-72
2022/06/08 00:46:06;;;;;;;4.20;2.55;;;15.00;99.90;;;;;;5034856;28;20383;-72
2022/06/08 00:48:39;;;;;;;4.53;2.88;;;15.00;99.90;;;;;;5035029;28;20033;-71
2022/06/08 00:51:05;;;;;;;5.40;3.00;;;15.00;99.90;;;;;;5039894;28;20045;-71
2022/06/08 00:53:38;;;;;;;5.30;2.70;;;15.00;99.90;;;;;;5048101;28;20036;-71
2022/06/08 00:56:09;;;;;;;7.03;2.80;;;15.00;99.90;;;;;;5039837;28;20462;-71
2022/06/08 00:58:37;;;;;;;6.60;2.60;;;15.00;99.90;;;;;;5049265;28;20056;-72
2022/06/08 01:01:04;;;;;;;3.97;2.65;;;15.00;99.90;;;;;;5033210;28;20391;-72
2022/06/08 01:03:31;;;;;;;3.50;2.50;;;15.00;99.90;;;;;;5054500;28;20033;-71
2022/06/08 01:06:02;;;;;;;4.40;2.13;;;15.00;99.90;;;;;;5044022;28;20040;-71
2022/06/08 01:08:32;;;;;;;;;;;15.00;99.90;;;;;;5050153;28;20399;-72
2022/06/08 01:11:07;;;;;;;4.13;2.08;;;15.00;99.90;;;;;;5049515;28;20278;-72
2022/06/08 01:13:36;;;;;;;3.65;2.38;;;14.90;99.90;;;;;;5034896;28;20069;-74
2022/06/08 01:16:08;;;;;;;3.90;2.40;;;14.90;99.90;;;;;;5049213;28;20108;-71
2022/06/08 01:18:36;;;;;;;2.92;2.50;;;14.90;99.90;;;;;;5049560;28;20064;-71
2022/06/08 01:21:20;;;;;;;5.63;3.20;;;14.80;99.90;;;;;;5033955;28;20394;-72
2022/06/08 01:23:56;;;;;;;5.45;3.30;;;14.80;99.90;;;;;;5034513;28;20034;-71
2022/06/08 01:26:30;;;;;;;4.93;3.22;;;14.70;99.90;;;;;;5059505;28;20037;-72
2022/06/08 01:29:32;;;;;;;4.18;2.92;;;14.70;99.90;;;;;;5038643;28;20057;-71
2022/06/08 01:32:19;;;;;;;5.28;3.42;;;14.70;99.90;;;;;;5033008;28;20049;-72
2022/06/08 01:35:03;;;;;;;5.53;3.92;;;14.60;99.90;;;;;;5034830;28;20038;-72
2022/06/08 01:37:56;;;;;;;6.97;4.22;;;14.60;99.90;;;;;;5041533;28;20489;-72
2022/06/08 01:40:58;;;;;;;6.45;4.55;;;14.60;99.90;;;;;;5040002;28;20390;-72
2022/06/08 01:44:23;;;;;;;6.65;3.85;;;14.60;99.90;;;;;;5034506;28;20398;-72
2022/06/08 01:47:06;;;;;;;6.35;4.43;;;14.60;99.90;;;;;;5032683;28;20041;-72
2022/06/08 01:49:54;;;;;;;5.93;4.10;;;14.50;99.90;;;;;;5033072;28;20038;-74
2022/06/08 01:52:52;;;;;;;6.38;4.28;;;14.40;99.90;;;;;;5049375;28;20056;-74
2022/06/08 01:55:53;;;;;;;6.38;4.80;;;14.30;99.90;;;;;;5048735;28;20382;-72
2022/06/08 01:58:48;;;;;;;8.95;4.72;;;14.30;99.90;;;;;;5028255;28;20041;-72
2022/06/08 02:01:22;;;;;;;8.73;5.35;;;14.20;99.90;;;;;;5033866;28;20049;-72
2022/06/08 02:04:12;;;;;;;7.18;5.30;;;14.10;99.90;;;;;;5048808;28;20034;-72
2022/06/08 02:07:04;;;;;;;6.60;4.97;;;14.00;99.90;;;;;;5044489;28;20029;-72
2022/06/08 02:09:37;;;;;;;;;;;14.00;99.90;;;;;;5041835;28;20042;-72
2022/06/08 02:12:08;;;;;;;9.05;5.57;;;13.90;99.90;;;;;;5063586;28;19992;-73
2022/06/08 02:15:16;;;;;;;7.88;5.28;;;13.90;99.90;;;;;;5033632;28;20042;-72
2022/06/08 02:17:57;;;;;;;7.88;5.57;;;13.90;99.90;;;;;;5032937;28;20049;-72
2022/06/08 02:20:37;;;;;;;9.10;6.18;;;13.80;99.90;;;;;;5063847;28;20041;-73
2022/06/08 02:23:23;;;;;;;9.73;5.75;;;13.80;99.90;;;;;;5038594;28;20041;-73
2022/06/08 02:26:02;;;;;;;9.23;5.70;;;13.70;99.90;;;;;;5045807;28;20052;-73
2022/06/08 02:28:34;;;;;;;8.73;5.97;;;13.70;99.90;;;;;;5040641;28;20502;-72
2022/06/08 02:31:06;;;;;;;11.38;6.15;;;13.70;99.90;;;;;;5040034;28;20047;-73
2022/06/08 02:36:27;;;;;;;11.13;7.90;;;13.60;99.90;;;;;;5049627;28;20356;-72
2022/06/08 02:39:00;;;;;;;9.80;7.18;;;13.60;99.90;;;;;;5032539;28;20068;-73
2022/06/08 02:41:28;;;;;;;8.43;7.22;;;13.50;99.90;;;;;;5032232;28;20475;-73
2022/06/08 02:44:03;;;;;;;12.70;7.25;;;13.50;99.90;;;;;;5042634;28;20041;-72
2022/06/08 02:47:05;;;;;;;12.52;7.28;;;13.50;99.90;;;;;;5032300;28;20493;-72
2022/06/08 02:49:36;;;;;;;8.32;6.88;;;13.50;99.90;;;;;;5031869;28;20407;-73
2022/06/08 02:52:19;;;;;;;11.32;6.95;;;13.40;99.90;;;;;;5031055;28;20049;-72
2022/06/08 02:54:47;;;;;;;10.63;6.70;;;13.40;99.90;;;;;;5031743;28;20048;-74
2022/06/08 02:57:20;;;;;;;10.32;6.95;;;13.40;99.90;;;;;;5031339;28;20042;-73
2022/06/08 03:00:02;;;;;;;9.77;6.68;;;13.40;99.90;;;;;;5032533;28;20025;-73
2022/06/08 03:03:01;;;;;;;12.27;6.72;;;13.40;99.90;;;;;;5031699;28;20072;-72
2022/06/08 03:05:48;;;;;;;10.18;6.75;;;13.30;99.90;;;;;;5031528;28;20037;-73
2022/06/08 03:08:21;;;;;;;10.25;6.75;;;13.30;99.90;;;;;;5030650;28;20038;-73
2022/06/08 03:10:49;;;;;;;10.75;6.85;;;13.30;99.90;;;;;;5032893;28;20360;-73
2022/06/08 03:13:18;;;;;;;12.60;7.43;;;13.30;99.90;;;;;;5030404;28;20268;-73
2022/06/08 03:15:53;;;;;;;10.82;7.78;;;13.40;99.90;;;;;;5031645;28;20048;-73
2022/06/08 03:18:19;;;;;;;12.10;7.55;;;13.40;99.90;;;;;;5032938;28;20052;-73
2022/06/08 03:20:46;;;;;;;10.05;7.20;;;13.40;99.90;;;;;;5042038;28;20064;-73
2022/06/08 03:23:13;;;;;;;9.20;7.68;;;13.40;99.90;;;;;;5033051;28;20045;-73
2022/06/08 03:25:40;;;;;;;10.15;7.35;;;13.50;99.90;;;;;;5047606;28;20364;-73
2022/06/08 03:28:07;;;;;;;10.32;7.03;;;13.50;99.90;;;;;;5045111;28;20041;-73
2022/06/08 03:30:33;;;;;;;15.00;7.43;;;13.60;99.90;;;;;;5032643;28;20040;-73
2022/06/08 03:33:02;;;;;;;17.75;7.75;;;13.60;99.90;;;;;;5030344;28;20041;-74
2022/06/08 03:35:29;;;;;;;10.38;7.20;;;13.70;99.90;;;;;;5015189;28;20060;-73
2022/06/08 03:37:55;;;;;;;7.72;6.72;;;13.70;99.90;;;;;;5031013;28;20033;-73
2022/06/08 03:40:27;;;;;;;8.82;6.68;;;13.80;99.90;;;;;;5046998;28;20041;-73
2022/06/08 03:42:54;;;;;;;9.98;6.78;;;13.90;99.90;;;;;;5031652;28;20402;-73
2022/06/08 03:45:20;;;;;;;13.55;6.95;;;13.90;99.90;;;;;;5031691;28;20033;-73
2022/06/08 03:47:48;;;;;;;8.77;6.10;;;14.00;99.90;;;;;;5032374;28;20025;-73
2022/06/08 03:50:17;;;;;;;9.85;6.00;;;14.10;99.90;;;;;;5031680;28;20374;-73
2022/06/08 03:52:48;;;;;;;11.00;6.03;;;14.20;99.90;;;;;;5031793;28;20034;-73
2022/06/08 03:55:15;;;;;;;;;;;14.40;99.90;;;;;;5030987;28;20037;-75
2022/06/08 03:57:45;;;;;;;7.82;5.78;;;14.50;99.90;;;;;;5032047;28;19909;-73
2022/06/08 04:00:15;;;;;;;9.48;5.35;;;14.70;99.90;;;;;;5014865;28;20068;-73
2022/06/08 04:02:46;;;;;;;6.07;4.47;;;14.80;99.90;;;;;;5031998;28;20045;-73
2022/06/08 04:05:16;;;;;;;10.73;4.85;;;14.90;99.90;;;;;;5030276;28;20064;-73
2022/06/08 04:07:43;;;;;;;5.82;4.32;;;14.90;99.90;;;;;;5030578;28;20045;-73
2022/06/08 04:10:11;;;;;;;10.35;4.55;;;14.90;99.90;;;;;;5042388;28;20048;-73
2022/06/08 04:12:38;;;;;;;7.20;4.15;;;15.00;99.90;;;;;;5041849;28;20041;-73
2022/06/08 04:15:05;;;;;;;7.57;4.18;;;15.00;99.90;;;;;;5038589;28;20042;-74
2022/06/08 04:17:32;;;;;;;6.70;4.45;;;15.00;99.90;;;;;;5047416;28;20037;-73
2022/06/08 04:19:58;;;;;;;5.60;4.22;;;15.00;99.90;;;;;;5049382;28;20482;-76
2022/06/08 04:22:31;;;;;;;7.78;4.50;;;15.00;99.90;;;;;;5040927;28;20493;-73
2022/06/08 04:24:59;;;;;;;7.35;4.53;;;15.00;99.90;;;;;;5040969;28;20041;-73
2022/06/08 04:27:26;;;;;;;4.75;4.22;;;15.00;99.90;;;;;;5031212;28;20052;-73
2022/06/08 04:29:54;;;;;;;7.13;4.28;;;15.10;99.90;;;;;;5048995;28;20045;-73
2022/06/08 04:32:22;;;;;;;5.10;4.10;;;15.10;99.90;;;;;;5046129;28;20050;-73
2022/06/08 04:34:49;;;;;;;6.85;4.88;;;15.10;99.90;;;;;;5043892;28;20490;-73
2022/06/08 04:37:17;;;;;;;6.95;5.18;;;15.10;99.90;;;;;;5033611;28;20041;-73
2022/06/08 04:39:47;;;;;;;;;;;15.10;99.90;;;;;;5034822;28;20372;-74
2022/06/08 04:42:14;;;;;;;10.57;5.90;;;15.10;99.90;;;;;;5033786;28;19917;-73
2022/06/08 04:44:42;;;;;;;9.82;5.15;;;15.10;99.90;;;;;;5034176;28;20376;-73
2022/06/08 04:47:13;;;;;;;;;;;15.00;99.90;;;;;;5051326;28;20045;-73
2022/06/08 04:49:43;;;;;;;6.75;4.80;;;15.00;99.90;;;;;;5041639;28;19909;-73
2022/06/08 04:52:10;;;;;;;7.07;5.40;;;14.90;99.90;;;;;;5048840;28;20057;-73
2022/06/08 04:54:37;;;;;;;8.40;6.07;;;14.90;99.90;;;;;;5042458;28;20045;-73
2022/06/08 04:57:04;;;;;;;8.13;5.32;;;14.90;99.90;;;;;;5043007;28;20060;-73
2022/06/08 04:59:30;;;;;;;7.03;5.03;;;14.80;99.90;;;;;;5052350;28;20025;-73
2022/06/08 05:02:42;;;;;;;7.40;5.47;;;14.90;99.90;;;;;;5043849;28;20049;-74
2022/06/08 05:05:07;;;;;;;9.88;5.57;;;15.00;99.90;;;;;;5034332;28;20036;-73
2022/06/08 05:07:35;;;;;;;6.70;4.78;;;15.20;99.90;;;;;;5060054;28;20041;-72
2022/06/08 05:10:03;;;;;;;8.27;5.28;;;15.40;99.90;;;;;;5033102;28;20067;-71
2022/06/08 05:12:30;;;;;;;8.30;4.72;;;15.70;99.90;;;;;;5049163;28;20486;-72
2022/06/08 05:14:56;;;;;;;7.68;4.63;;;16.00;99.90;;;;;;5021508;28;20042;-72
2022/06/08 05:17:23;;;;;;;6.03;4.35;;;16.10;99.90;;;;;;5049499;28;20045;-72
2022/06/08 05:19:49;;;;;;;9.77;5.47;;;16.10;99.90;;;;;;5034229;28;20033;-72
2022/06/08 05:22:15;;;;;;;8.02;4.38;;;16.10;99.90;;;;;;5033653;28;20045;-72
2022/06/08 05:24:42;;;;;;;8.60;4.75;;;16.10;99.90;;;;;;5033185;28;20046;-72
2022/06/08 05:27:09;;;;;;;5.63;3.67;;;16.00;99.90;;;;;;5033244;28;20506;-71
2022/06/08 05:29:35;;;;;;;7.82;3.92;;;15.90;99.90;;;;;;5033345;28;20037;-71
2022/06/08 05:32:03;;;;;;;8.55;3.88;;;16.00;99.90;;;;;;5051806;28;20469;-72
2022/06/08 05:34:32;;;;;;;5.70;3.67;;;15.90;99.90;;;;;;5046960;28;20041;-71
2022/06/08 05:36:59;;;;;;;5.68;3.70;;;15.90;99.90;;;;;;5032779;28;20041;-72
2022/06/08 05:39:27;;;;;;;6.90;3.13;;;16.00;99.90;;;;;;5049145;28;20041;-73
2022/06/08 05:41:54;;;;;;;5.07;3.03;;;16.00;99.90;;;;;;5033427;28;20045;-72
2022/06/08 05:44:21;;;;;;;4.63;2.97;;;15.90;99.90;;;;;;5052429;28;20045;-71
2022/06/08 05:46:51;;;;;;;6.10;2.50;;;16.00;99.90;;;;;;5030750;28;20386;-71
2022/06/08 05:49:18;;;;;;;5.10;2.30;;;16.10;99.90;;;;;;5042973;28;20052;-72
2022/06/08 05:51:47;;;;;;;6.72;2.38;;;16.10;99.90;;;;;;5032505;28;20376;-73
2022/06/08 05:54:18;;;;;;;7.53;2.42;;;16.20;99.90;;;;;;5064378;28;20041;-72
2022/06/08 05:56:45;;;;;;;2.55;1.80;;;16.20;99.90;;;;;;5032571;28;20056;-72
2022/06/08 05:59:11;;;;;;;5.10;1.48;;;16.20;99.90;;;;;;5032664;28;20041;-72
2022/06/08 06:01:41;;;;;;;3.63;1.90;;;16.10;99.90;;;;;;5032814;28;20048;-71
2022/06/08 06:04:08;;;;;;;6.72;2.00;;;15.90;99.90;;;;;;5032109;28;20298;-72
2022/06/08 06:06:35;;;;;;;5.07;2.90;;;15.90;99.90;;;;;;5032817;28;20037;-72
2022/06/08 06:09:04;;;;;;;5.70;1.90;;;15.80;99.90;;;;;;5032078;28;20045;-72
2022/06/08 06:11:32;;;;;;;5.32;1.75;;;15.70;99.90;;;;;;5032139;28;20041;-72
2022/06/08 06:14:00;;;;;;;5.13;1.50;;;15.70;99.90;;;;;;5032405;28;20069;-72
2022/06/08 06:16:26;;;;;;;5.13;1.95;;;15.80;99.90;;;;;;5053633;28;20044;-71
2022/06/08 06:18:56;;;;;;;4.90;1.75;;;15.80;99.90;;;;;;5040081;28;20041;-72
2022/06/08 06:21:29;;;;;;;2.63;1.30;;;15.80;99.90;;;;;;5032192;28;20044;-72
2022/06/08 06:24:14;;;;;;;3.80;1.63;;;15.80;99.90;;;;;;5032691;28;20064;-72
2022/06/08 06:26:59;;;;;;;5.15;1.92;;;16.00;99.90;;;;;;5039424;28;20049;-72
2022/06/08 06:29:54;;;;;;;6.68;1.80;;;16.10;99.90;;;;;;5040440;28;20068;-72
2022/06/08 06:32:33;;;;;;;7.35;1.60;;;16.20;99.90;;;;;;5034304;28;20187;-72
2022/06/08 06:35:00;;;;;;;3.88;1.40;;;16.20;99.90;;;;;;5047478;28;20033;-71
2022/06/08 06:37:29;;;;;;;4.57;1.63;;;16.30;99.90;;;;;;5031468;28;20406;-72
2022/06/08 06:39:56;;;;;;;4.85;1.60;;;16.70;99.90;;;;;;5032196;28;20046;-73
2022/06/08 06:42:30;;;;;;;3.08;1.33;;;17.80;99.90;;;;;;5045582;28;20037;-72
2022/06/08 06:45:18;;;;;;;5.72;1.25;;;18.60;99.90;;;;;;5031330;28;20037;-72
2022/06/08 06:47:49;;;;;;;3.67;1.27;;;19.40;99.90;;;;;;5048784;28;20038;-72
2022/06/08 06:50:25;;;;;;;3.95;1.20;;;20.10;96.00;;;;;;5030798;28;20046;-71
2022/06/08 06:52:52;;;;;;;3.97;1.23;;;20.90;94.70;;;;;;5032451;28;20041;-72
2022/06/08 06:55:25;;;;;;;4.47;1.23;;;21.40;92.00;;;;;;5037755;28;20045;-71
2022/06/08 06:57:54;;;;;;;4.78;1.33;;;21.50;88.40;;;;;;5034641;28;20395;-73
2022/06/08 07:00:25;;;;;;;3.47;1.45;;;21.70;88.50;;;;;;5021168;28;20041;-71
2022/06/08 07:02:53;;;;;;;4.43;1.10;;;21.70;85.60;;;;;;5042941;28;20364;-72
2022/06/08 07:05:23;;;;;;;2.78;0.90;;;21.50;83.60;;;;;;5030556;28;20068;-72
2022/06/08 07:07:50;;;;;;;4.68;1.38;;;21.60;84.50;;;;;;5031347;28;20052;-72
2022/06/08 07:10:18;;;;;;;3.47;0.98;;;22.40;82.40;;;;;;5030539;28;20038;-72
2022/06/08 07:12:44;;;;;;;3.45;1.25;;;22.40;81.00;;;;;;5030553;28;20052;-72
2022/06/08 07:15:12;;;;;;;4.38;1.35;;;22.60;80.10;;;;;;5041074;28;20045;-72
2022/06/08 07:17:40;;;;;;;5.70;1.08;;;22.80;77.00;;;;;;5044982;28;20386;-72
2022/06/08 07:20:09;;;;;;;2.83;1.23;;;23.00;79.40;;;;;;5036755;28;20041;-72
2022/06/08 07:22:35;;;;;;;2.20;1.10;;;23.50;75.60;;;;;;5030949;28;20044;-72
2022/06/08 07:25:03;;;;;;;4.15;1.27;;;24.20;74.30;;;;;;5043998;28;20022;-72
2022/06/08 07:27:29;;;;;;;4.20;1.08;;;24.20;70.20;;;;;;5031951;28;20470;-72
2022/06/08 07:29:55;;;;;;;5.68;1.23;;;24.30;69.90;;;;;;5032138;28;20045;-72
2022/06/08 07:32:22;;;;;;;5.22;1.20;;;24.30;70.00;;;;;;5043611;28;20029;-72
2022/06/08 07:34:48;;;;;;;4.55;1.20;;;23.80;68.80;;;;;;5039309;28;20052;-72
2022/06/08 07:37:14;;;;;;;5.45;0.93;;;23.20;71.10;;;;;;5031662;28;20034;-72
2022/06/08 07:39:40;;;;;;;2.58;1.15;;;22.60;72.90;;;;;;5031743;28;20030;-71
2022/06/08 07:42:07;;;;;;;4.68;1.65;;;22.00;76.30;;;;;;5031454;28;20037;-72
2022/06/08 07:44:33;;;;;;;5.20;1.17;;;21.90;78.70;;;;;;5031902;28;20045;-71
2022/06/08 07:46:59;;;;;;;3.03;1.40;;;22.10;76.20;;;;;;5043138;28;20052;-71
2022/06/08 07:49:37;;;;;;;3.17;1.17;;;22.10;77.60;;;;;;5041782;28;20037;-71
2022/06/08 07:52:10;;;;;;;5.40;1.63;;;21.90;77.90;;;;;;5031652;28;20038;-74
2022/06/08 07:54:37;;;;;;;4.03;1.15;;;21.20;82.60;;;;;;5030862;28;20041;-72
2022/06/08 07:57:04;;;;;;;3.70;1.33;;;21.20;80.90;;;;;;5030487;28;20056;-72
2022/06/08 07:59:34;;;;;;;4.00;1.10;;;21.10;80.20;;;;;;5041358;28;20048;-72
2022/06/08 08:02:01;;;;;;;2.33;1.00;;;21.00;82.20;;;;;;5031990;28;20096;-72
2022/06/08 08:04:27;;;;;;;5.22;1.05;;;21.00;82.50;;;;;;5038590;28;20474;-73
2022/06/08 08:06:54;;;;;;;8.27;1.95;;;21.10;82.20;;;;;;5037728;28;20478;-72
2022/06/08 08:09:23;;;;;;;4.05;1.30;;;20.80;83.60;;;;;;5032392;28;20029;-72
2022/06/08 08:11:51;;;;;;;3.58;1.38;;;20.80;81.30;;;;;;5036133;28;20036;-73
2022/06/08 08:14:19;;;;;;;6.50;1.38;;;20.60;81.30;;;;;;5054094;28;20053;-72
2022/06/08 08:16:46;;;;;;;4.03;1.40;;;20.50;82.80;;;;;;5037518;28;20040;-72
2022/06/08 08:19:17;;;;;;;5.97;2.17;;;20.60;83.60;;;;;;5035036;28;20034;-72
2022/06/08 08:21:45;;;;;;;5.13;1.58;;;20.90;84.70;;;;;;5035567;28;20040;-73
2022/06/08 08:24:11;;;;;;;2.15;1.00;;;21.40;81.00;;;;;;5035286;28;20366;-72
2022/06/08 08:26:38;;;;;;;5.50;1.33;;;22.00;78.70;;;;;;5034010;28;20548;-73
2022/06/08 08:29:05;;;;;;;5.50;1.50;;;22.50;75.10;;;;;;5035479;28;20044;-73
2022/06/08 08:31:32;;;;;;;7.30;1.38;;;22.50;75.60;;;;;;5035155;28;20034;-73
2022/06/08 08:33:59;;;;;;;4.38;0.98;;;22.50;74.20;;;;;;5035242;28;20054;-73
2022/06/08 08:36:26;;;;;;;3.40;1.15;;;22.50;74.30;;;;;;5035056;28;20256;-73
2022/06/08 08:38:52;;;;;;;7.15;1.05;;;22.70;73.80;;;;;;5034448;28;20037;-73
2022/06/08 08:44:42;;;;;;;3.83;1.00;;;23.90;71.50;;;;;;5022083;28;20056;-73
2022/06/08 08:47:35;;;;;;;3.38;0.90;;;23.80;70.70;;;;;;5034876;28;20044;-73
2022/06/08 08:50:08;;;;;;;4.57;0.80;;;24.10;66.70;;;;;;5035395;28;20455;-73
2022/06/08 08:52:41;;;;;;;4.47;0.68;;;24.90;64.60;;;;;;5035132;28;20033;-70
2022/06/08 08:55:48;;;;;;;3.40;0.95;;;25.10;63.20;;;;;;5048829;28;20037;-73
2022/06/08 08:58:16;;;;;;;1.85;0.80;;;25.00;62.90;;;;;;5035891;28;20478;-73
2022/06/08 09:00:56;;;;;;;6.20;0.85;;;25.00;61.40;;;;;;5036692;28;20030;-73
2022/06/08 09:03:34;;;;;;;3.67;0.80;;;24.90;62.60;;;;;;5048402;28;20033;-73
2022/06/08 09:06:13;;;;;;;5.55;0.57;;;25.60;61.70;;;;;;5048121;28;20036;-73
2022/06/08 09:08:43;;;;;;;2.50;0.95;;;25.80;59.00;;;;;;5039864;28;20032;-73
2022/06/08 09:11:22;;;;;;;2.53;0.93;;;25.60;58.90;;;;;;5042177;28;20037;-73
2022/06/08 09:13:55;;;;;;;2.92;0.57;;;25.40;60.30;;;;;;5034710;28;20050;-74
2022/06/08 09:16:32;;;;;;;4.00;0.73;;;26.00;57.80;;;;;;5045212;28;20041;-74
2022/06/08 09:18:58;;;;;;;2.90;1.08;;;26.00;57.40;;;;;;5034948;28;20032;-73
2022/06/08 09:21:30;;;;;;;2.67;0.68;;;25.90;58.10;;;;;;5048280;28;20045;-73
2022/06/08 09:24:09;;;;;;;3.70;0.77;;;25.10;58.80;;;;;;5048594;28;20497;-73
2022/06/08 09:26:40;;;;;;;2.17;0.80;;;24.10;59.40;;;;;;5034677;28;20036;-72
2022/06/08 09:29:20;;;;;;;3.58;1.30;;;24.00;60.30;;;;;;5034111;28;20497;-73
2022/06/08 09:31:50;;;;;;;1.75;0.60;;;24.80;59.90;;;;;;5033841;28;20052;-71
2022/06/08 09:34:23;;;;;;;4.10;0.70;;;25.50;58.20;;;;;;5032576;28;20053;-71
2022/06/08 09:37:13;;;;;;;7.32;1.60;;;26.20;57.10;;;;;;5034508;28;20029;-71
2022/06/08 09:39:42;;;;;;;4.72;0.70;;;26.30;56.80;;;;;;5039449;28;20066;-71
2022/06/08 09:42:22;;;;;;;3.03;0.88;;;26.20;55.50;;;;;;5051485;28;20033;-71
2022/06/08 09:45:34;;;;;;;4.45;1.50;;;26.00;56.80;;;;;;5037024;28;20482;-71
2022/06/08 09:54:12;;;;;;;2.35;0.73;;;26.10;55.60;;;;;;5042809;28;20029;-73
2022/06/08 09:57:09;;;;;;;4.88;0.90;;;25.60;56.30;;;;;;5033839;28;20033;-72
2022/06/08 09:59:41;;;;;;;3.33;0.80;;;26.10;55.50;;;;;;5036750;28;20374;-72
2022/06/08 10:02:18;;;;;;;2.22;1.08;;;26.90;55.60;;;;;;5042078;28;20030;-73
2022/06/08 10:05:02;;;;;;;3.28;0.93;;;27.50;52.80;;;;;;5044734;28;20041;-72
2022/06/08 10:07:55;;;;;;;2.05;0.63;;;27.30;53.20;;;;;;5032955;28;20382;-72
2022/06/08 10:10:52;;;;;;;3.63;1.00;;;27.00;53.70;;;;;;5033031;28;20045;-73
2022/06/08 10:13:28;;;;;;;3.60;0.80;;;26.70;54.60;;;;;;5032971;28;20050;-72
2022/06/08 10:16:04;;;;;;;2.42;0.85;;;27.10;53.40;;;;;;5035399;28;20033;-72
2022/06/08 10:18:42;;;;;;;3.90;1.20;;;26.10;54.90;;;;;;5038046;28;20030;-73
2022/06/08 10:21:19;;;;;;;4.65;0.90;;;25.10;56.00;;;;;;5032692;28;20040;-73
2022/06/08 10:24:09;;;;;;;4.22;0.82;;;24.60;55.90;;;;;;5033092;28;20034;-74
2022/06/08 10:26:41;;;;;;;1.67;0.77;;;24.60;56.60;;;;;;5039396;28;20037;-72
2022/06/08 10:29:32;;;;;;;2.20;0.70;;;24.70;56.50;;;;;;5032974;28;20029;-75
2022/06/08 10:33:00;;;;;;;5.70;0.80;;;25.60;57.50;;;;;;5050543;28;20037;-73
2022/06/08 10:35:38;;;;;;;3.30;1.00;;;25.70;54.40;;;;;;4988998;28;20045;-72
2022/06/08 10:38:07;;;;;;;3.88;0.63;;;25.30;55.70;;;;;;4993842;28;20045;-72
2022/06/08 10:40:49;;;;;;;3.97;0.90;;;25.30;56.30;;;;;;5010378;28;20434;-72
2022/06/08 10:43:20;;;;;;;1.30;0.77;;;25.20;55.50;;;;;;5010130;28;20038;-72
2022/06/08 10:45:57;;;;;;;3.58;0.90;;;25.60;55.90;;;;;;4994026;28;20046;-72
2022/06/08 10:48:31;;;;;;;3.78;0.65;;;25.40;56.50;;;;;;5009617;28;20038;-72
2022/06/08 10:51:09;;;;;;;3.08;0.60;;;25.20;56.00;;;;;;5010271;28;20033;-73
2022/06/08 10:56:28;;;;;;;4.43;1.20;;;25.10;56.30;;;;;;5005385;28;20110;-73
2022/06/08 10:59:04;;;;;;;3.80;0.90;;;25.10;56.70;;;;;;4999276;28;20123;-72
2022/06/08 11:02:01;;;;;;;2.13;0.70;;;24.80;58.10;;;;;;5009464;28;20491;-72
2022/06/08 11:04:27;;;;;;;2.35;0.65;;;24.40;56.10;;;;;;5009737;28;20038;-71
2022/06/08 11:07:10;;;;;;;3.92;0.63;;;24.00;57.10;;;;;;5028347;28;20037;-71
2022/06/08 11:09:44;;;;;;;2.53;0.90;;;24.30;58.30;;;;;;5038294;28;20478;-72
2022/06/08 11:12:11;;;;;;;3.47;0.85;;;24.60;56.10;;;;;;5033954;28;20049;-73
2022/06/08 11:14:43;;;;;;;1.58;0.75;;;24.90;54.80;;;;;;5037141;28;20037;-72
2022/06/08 11:17:35;;;;;;;3.20;0.70;;;25.00;55.00;;;;;;5034517;28;20041;-74
2022/06/08 11:20:05;;;;;;;3.42;0.65;;;24.80;55.70;;;;;;5031210;28;20037;-72
2022/06/08 11:22:39;;;;;;;3.00;0.85;;;25.20;57.50;;;;;;5031069;28;20085;-72
2022/06/08 11:25:11;;;;;;;3.80;0.73;;;25.60;54.20;;;;;;5032438;28;20037;-72
2022/06/08 11:27:39;;;;;;;3.95;0.98;;;25.60;54.60;;;;;;5032428;28;20045;-72
2022/06/08 11:30:14;;;;;;;2.42;0.82;;;25.80;56.00;;;;;;5030692;28;20038;-72
2022/06/08 11:32:52;;;;;;;3.38;1.05;;;26.10;52.80;;;;;;5032201;28;20390;-72
2022/06/08 11:35:49;;;;;;;4.53;0.90;;;25.60;53.90;;;;;;5035480;28;20037;-73
2022/06/08 11:38:24;;;;;;;2.78;0.70;;;25.30;53.60;;;;;;5040100;28;20382;-73
2022/06/08 11:40:50;;;;;;;1.38;0.60;;;24.90;54.60;;;;;;5030880;28;20495;-73
2022/06/08 11:43:31;;;;;;;1.65;1.15;;;24.90;54.80;;;;;;5031445;28;20486;-73
2022/06/08 11:45:58;;;;;;;2.83;0.63;;;24.70;56.00;;;;;;5031983;28;20386;-72
2022/06/08 11:48:27;;;;;;;2.63;0.80;;;24.70;56.80;;;;;;5031318;28;20041;-72
2022/06/08 11:51:02;;;;;;;1.73;0.80;;;24.90;54.90;;;;;;5045820;28;20033;-72
2022/06/08 11:53:33;;;;;;;7.28;1.25;;;24.70;54.80;;;;;;5034929;28;20037;-72
2022/06/08 11:56:25;;;;;;;2.30;1.05;;;24.60;55.40;;;;;;5031696;28;20037;-73
2022/06/08 11:58:56;;;;;;;2.50;1.27;;;24.50;54.70;;;;;;5031824;28;20383;-72
2022/06/08 12:01:32;;;;;;;4.30;0.60;;;24.30;53.70;;;;;;5032895;28;20143;-73
2022/06/08 12:04:07;;;;;;;3.22;0.80;;;24.20;54.30;;;;;;5049490;28;20033;-73
2022/06/08 12:06:39;;;;;;;3.03;0.80;;;24.20;54.80;;;;;;5037492;28;20471;-73
2022/06/08 12:09:41;;;;;;;3.15;0.90;;;24.30;55.30;;;;;;5031496;28;20482;-72
2022/06/08 12:12:15;;;;;;;1.73;0.80;;;24.10;54.30;;;;;;5007215;28;20066;-72
2022/06/08 12:14:42;;;;;;;2.63;0.60;;;24.00;53.40;;;;;;5004598;28;20052;-73
2022/06/08 12:17:17;;;;;;;2.38;0.70;;;23.90;53.90;;;;;;5002434;28;20041;-73
2022/06/08 12:19:47;;;;;;;1.80;0.60;;;23.90;54.90;;;;;;4991081;28;20045;-73
2022/06/08 12:22:51;;;;;;;4.82;0.75;;;24.00;54.30;;;;;;4991718;28;20058;-74
2022/06/08 12:25:23;;;;;;;2.67;0.70;;;24.20;53.10;;;;;;4994432;28;20050;-73
2022/06/08 12:27:53;;;;;;;1.58;0.73;;;24.40;53.70;;;;;;5004408;28;20030;-72
2022/06/08 12:30:25;;;;;;;1.95;0.85;;;24.60;52.60;;;;;;4991837;28;20041;-72
2022/06/08 12:32:55;;;;;;;3.42;0.70;;;24.50;53.50;;;;;;4992424;28;20034;-72
2022/06/08 12:35:26;;;;;;;;;;;24.10;54.30;;;;;;4996347;28;20061;-73
2022/06/08 12:38:13;;;;;;;2.30;0.80;;;23.80;54.50;;;;;;5007426;28;19909;-72
2022/06/08 12:40:41;;;;;;;4.28;0.70;;;23.40;55.10;;;;;;4992310;28;20057;-72
2022/06/08 12:43:07;;;;;;;2.25;0.93;;;23.30;55.70;;;;;;4995505;28;20061;-73
2022/06/08 12:45:37;;;;;;;3.28;0.60;;;23.20;55.90;;;;;;4992066;28;20042;-72
2022/06/08 12:48:42;;;;;;;5.37;0.87;;;23.20;55.50;;;;;;4990861;28;20045;-72
2022/06/08 12:51:40;;;;;;;5.82;0.50;;;23.40;55.10;;;;;;4999167;28;20498;-72
2022/06/08 12:54:17;;;;;;;7.00;1.25;;;23.60;55.20;;;;;;4996475;28;20046;-73
2022/06/08 12:56:46;;;;;;;2.15;0.65;;;23.90;55.00;;;;;;5000670;28;20038;-72
2022/06/08 12:59:13;;;;;;;6.18;0.73;;;24.00;54.30;;;;;;5009186;28;20490;-72
2022/06/08 13:01:41;;;;;;;4.63;1.35;;;24.00;53.60;;;;;;4995730;28;20033;-72
2022/06/08 13:04:08;;;;;;;4.43;0.68;;;23.90;53.80;;;;;;4994329;28;20050;-72
2022/06/08 13:06:34;;;;;;;5.50;1.73;;;23.70;53.80;;;;;;5015005;28;20041;-73
2022/06/08 13:09:01;;;;;;;3.05;1.10;;;23.60;54.10;;;;;;4997484;28;20030;-73
2022/06/08 13:11:27;;;;;;;2.85;0.77;;;23.60;54.20;;;;;;4993902;28;20050;-72
2022/06/08 13:13:55;;;;;;;2.67;0.98;;;23.30;55.50;;;;;;5033172;28;20046;-72
2022/06/08 13:16:27;;;;;;;2.53;0.77;;;22.90;56.60;;;;;;5034399;28;20034;-72
2022/06/08 13:18:55;;;;;;;8.27;1.13;;;22.80;56.40;;;;;;5034579;28;20087;-73
2022/06/08 13:21:22;;;;;;;4.68;1.05;;;22.70;55.90;;;;;;5033937;28;20022;-72
2022/06/08 13:23:49;;;;;;;1.95;0.70;;;22.70;58.00;;;;;;5034996;28;20056;-72
2022/06/08 13:26:27;;;;;;;8.00;1.00;;;22.50;57.80;;;;;;5034164;28;20058;-72
2022/06/08 13:28:56;;;;;;;4.00;0.80;;;22.40;58.60;;;;;;5034270;28;20494;-72
2022/06/08 13:31:23;;;;;;;5.68;0.98;;;22.30;59.70;;;;;;5034930;28;20041;-72
2022/06/08 13:33:58;;;;;;;3.15;0.95;;;22.40;59.30;;;;;;5033018;28;20505;-72
2022/06/08 13:36:27;;;;;;;6.10;0.95;;;22.30;58.20;;;;;;5033610;28;20033;-72